Time;durP1;ratioP1;P1;durP2;ratioP2;P2;SDS_P1;SDS_P2;PMS_P1;PMS_P2;Temp;Humidity;BMP_temperature;BMP_pressure;BME280_temperature;BME280_humidity;BME280_pressure;Samples;Min_cycle;Max_cycle;Signal;HPM_P1;HPM_P2
2022/12/17 13:08:03;;;;;;;12.30;7.23;;;;;;;-143.84;71.95;45117.63;5131821;27;20527;-72
2022/12/17 13:10:32;;;;;;;8.97;7.23;;;;;;;-143.84;71.54;45096.66;5131706;27;20546;-71
2022/12/17 13:13:06;;;;;;;16.10;8.30;;;;;;;-143.84;71.08;45083.34;5130787;27;20570;-72
2022/12/17 13:15:40;;;;;;;22.27;9.50;;;;;;;-143.84;70.56;45127.13;5112557;27;20434;-70
2022/12/17 13:18:19;;;;;;;13.63;8.10;;;;;;;-143.84;70.22;45098.56;5130635;27;20453;-72
2022/12/17 13:20:58;;;;;;;9.77;7.23;;;;;;;-143.84;70.48;45134.75;5130561;27;20491;-70
2022/12/17 13:23:34;;;;;;;11.00;8.87;;;;;;;-143.84;70.54;45129.03;5128164;27;20461;-71
2022/12/17 13:26:16;;;;;;;11.43;8.30;;;;;;;-143.84;70.36;45117.63;5128422;27;20438;-70
2022/12/17 13:28:48;;;;;;;27.03;9.43;;;;;;;-143.84;70.72;45090.97;5109838;28;20501;-70
2022/12/17 13:31:20;;;;;;;20.73;8.90;;;;;;;-143.84;70.91;45121.44;5110366;28;20443;-70
2022/12/17 13:33:55;;;;;;;16.57;10.40;;;;;;;-143.84;70.58;45083.34;5110443;28;20959;-70
2022/12/17 13:36:33;;;;;;;18.30;8.77;;;;;;;-143.84;70.70;45125.22;5127066;27;20486;-70
2022/12/17 13:39:06;;;;;;;18.70;8.03;;;;;;;-143.84;71.11;45117.63;5129118;27;20445;-70
2022/12/17 13:41:37;;;;;;;10.87;8.67;;;;;;;-143.84;71.00;45110.00;5130317;27;20442;-70
2022/12/17 13:44:18;;;;;;;14.47;8.97;;;;;;;-143.84;70.96;45129.03;5130337;27;20441;-70
2022/12/17 13:46:47;;;;;;;12.70;7.90;;;;;;;-143.84;70.67;45119.53;5130814;27;20450;-70
2022/12/17 13:49:18;;;;;;;13.70;7.93;;;;;;;-143.84;71.25;45123.34;5130829;27;20473;-70
2022/12/17 13:51:47;;;;;;;15.80;7.90;;;;;;;-143.84;71.10;45142.38;5130532;27;20434;-70
2022/12/17 13:54:16;;;;;;;14.73;8.43;;;;;;;-143.84;71.40;45096.66;5130247;27;20442;-70
2022/12/17 13:56:44;;;;;;;15.17;8.77;;;;;;;-143.84;71.14;45129.03;5130137;27;20442;-70
2022/12/17 13:59:20;;;;;;;8.00;7.20;;;;;;;-143.84;71.51;45138.56;5129450;27;20937;-70
2022/12/17 14:01:49;;;;;;;17.93;8.47;;;;;;;-143.84;71.96;45117.63;5130414;27;20473;-70
2022/12/17 14:04:24;;;;;;;14.40;8.00;;;;;;;-143.84;72.22;45111.91;5130737;27;20830;-70
2022/12/17 14:06:55;;;;;;;10.80;7.40;;;;;;;-143.84;72.48;45108.09;5128994;27;20915;-70
2022/12/17 14:09:24;;;;;;;12.60;8.33;;;;;;;-143.84;72.64;45110.00;5130338;27;21044;-69
2022/12/17 14:14:39;;;;;;;17.37;8.53;;;;;;;-143.84;72.63;45136.66;5130147;27;20831;-70
2022/12/17 14:17:07;;;;;;;10.17;7.63;;;;;;;-143.84;72.63;45121.44;5130316;27;20446;-70
2022/12/17 14:19:34;;;;;;;13.80;7.60;;;;;;;-143.84;72.23;45123.34;5130039;27;20483;-71
2022/12/17 14:22:03;;;;;;;14.53;7.33;;;;;;;-143.84;72.33;45108.09;5130189;27;20454;-70
2022/12/17 14:24:30;;;;;;;14.20;8.23;;;;;;;-143.84;72.71;45161.41;5128387;27;20464;-70
2022/12/17 14:27:00;;;;;;;14.73;7.00;;;;;;;-143.84;73.14;45146.19;5129482;27;20440;-70
2022/12/17 14:29:29;;;;;;;14.00;7.20;;;;;;;-143.84;73.23;45110.00;5129836;27;20474;-70
2022/12/17 14:31:58;;;;;;;14.37;8.00;;;;;;;-143.84;73.27;45123.34;5129740;27;20483;-71
2022/12/17 14:34:25;;;;;;;8.60;7.80;;;;;;;-143.84;73.84;45138.56;5130048;27;20437;-71
2022/12/17 14:36:57;;;;;;;9.90;6.77;;;;;;;-143.84;73.80;45110.00;5130103;27;20434;-71
2022/12/17 14:39:28;;;;;;;15.90;8.20;;;;;;;-143.84;73.81;45129.03;5130195;27;20453;-71
2022/12/17 14:44:51;;;;;;;11.50;8.30;;;;;;;-143.84;73.55;45125.22;5130053;27;20935;-71
2022/12/17 14:47:21;;;;;;;11.90;7.83;;;;;;;-143.84;73.64;45123.34;5129876;27;20422;-70
2022/12/17 14:50:05;;;;;;;18.97;9.00;;;;;;;-143.84;73.29;45127.13;5129827;28;20484;-71
2022/12/17 14:52:43;;;;;;;22.83;9.83;;;;;;;-143.84;73.24;45094.78;5127289;28;20450;-71
2022/12/17 14:55:27;;;;;;;10.00;7.30;;;;;;;-143.84;72.93;45113.81;5134146;27;20438;-71
2022/12/17 14:58:15;;;;;;;11.40;6.83;;;;;;;-143.84;72.05;45146.19;5134146;27;20434;-70
2022/12/17 15:00:45;;;;;;;11.90;7.77;;;;;;;-143.84;72.04;45117.63;5134188;27;20618;-71
2022/12/17 15:03:18;;;;;;;9.77;7.70;;;;;;;-143.84;71.91;45155.69;5133781;27;20452;-71
2022/12/17 15:05:50;;;;;;;17.83;8.53;;;;;;;-143.84;71.93;45159.50;5133563;27;20426;-71
2022/12/17 15:08:17;;;;;;;11.40;7.80;;;;;;;-143.84;72.22;45155.69;5133559;27;20888;-70
2022/12/17 15:10:45;;;;;;;9.50;8.30;;;;;;;-143.84;72.27;45140.47;5133399;27;20478;-70
2022/12/17 15:13:13;;;;;;;9.90;7.93;;;;;;;-143.84;72.26;45127.13;5132287;27;20470;-71
2022/12/17 15:15:40;;;;;;;15.70;7.20;;;;;;;-143.84;71.83;45150.00;5133737;27;20532;-70
2022/12/17 15:18:07;;;;;;;15.33;7.60;;;;;;;-143.84;72.10;45117.63;5133500;27;20426;-71
2022/12/17 15:20:34;;;;;;;12.47;8.30;;;;;;;-143.84;72.22;45132.84;5133920;27;20475;-70
2022/12/17 15:23:02;;;;;;;12.90;8.60;;;;;;;-143.84;72.39;45132.84;5133841;27;20822;-71
2022/12/17 15:25:29;;;;;;;16.43;9.23;;;;;;;-143.84;72.43;45174.75;5133933;27;20532;-72
2022/12/17 15:27:58;;;;;;;13.83;9.23;;;;;;;-143.84;72.31;45121.44;5133275;27;20437;-72
2022/12/17 15:30:25;;;;;;;9.73;7.90;;;;;;;-143.84;72.36;45140.47;5133428;27;20549;-71
2022/12/17 15:32:52;;;;;;;13.90;7.90;;;;;;;-143.84;72.38;45132.84;5133536;27;20438;-71
2022/12/17 15:35:20;;;;;;;11.87;8.43;;;;;;;-143.84;72.65;45151.91;5133571;27;20437;-71
2022/12/17 15:37:47;;;;;;;12.43;8.93;;;;;;;-143.84;72.48;45155.69;5133639;27;20449;-71
2022/12/17 15:40:14;;;;;;;13.57;8.63;;;;;;;-143.84;72.82;45151.91;5133453;27;21359;-71
2022/12/17 15:45:27;;;;;;;11.77;8.67;;;;;;;-143.84;73.40;45138.56;5133469;27;20433;-71
2022/12/17 15:47:54;;;;;;;15.00;8.60;;;;;;;-143.84;73.84;45123.34;5133118;27;20442;-72
2022/12/17 15:50:21;;;;;;;12.30;8.33;;;;;;;-143.84;74.20;45134.75;5133162;27;20883;-71
2022/12/17 15:52:49;;;;;;;12.83;8.53;;;;;;;-143.84;74.51;45117.63;5133151;27;20438;-71
2022/12/17 15:55:16;;;;;;;16.50;8.60;;;;;;;-143.84;74.95;45144.28;5133237;27;20426;-71
2022/12/17 15:57:44;;;;;;;11.53;9.17;;;;;;;-143.84;75.38;45125.22;5132493;27;20430;-71
2022/12/17 16:00:12;;;;;;;13.90;8.47;;;;;;;-143.84;75.80;45136.66;5133579;27;20422;-71
2022/12/17 16:02:42;;;;;;;15.13;8.73;;;;;;;-143.84;75.58;45119.53;5132641;27;20441;-71
2022/12/17 16:05:09;;;;;;;9.93;8.17;;;;;;;-143.84;75.25;45098.56;5132349;27;20444;-71
2022/12/17 16:07:37;;;;;;;14.20;8.83;;;;;;;-143.84;74.97;45140.47;5132664;27;20442;-71
2022/12/17 16:10:05;;;;;;;9.30;8.10;;;;;;;-143.84;74.80;45117.63;5132275;27;20576;-71
2022/12/17 16:12:33;;;;;;;15.23;9.73;;;;;;;-143.84;75.06;45125.22;5131569;27;20480;-70
2022/12/17 16:15:00;;;;;;;25.33;11.83;;;;;;;-143.84;74.72;45115.72;5132167;27;20441;-73
2022/12/17 16:17:27;;;;;;;11.50;7.30;;;;;;;-143.84;75.50;45113.81;5132354;27;20437;-71
2022/12/17 16:19:56;;;;;;;11.73;7.93;;;;;;;-143.84;74.41;45134.75;5131971;27;20950;-71
2022/12/17 16:22:23;;;;;;;8.40;7.60;;;;;;;-143.84;73.90;45134.75;5128735;27;20514;-72
2022/12/17 16:24:51;;;;;;;10.30;9.20;;;;;;;-143.84;73.68;45140.47;5131699;27;20449;-71
2022/12/17 16:27:20;;;;;;;16.23;8.80;;;;;;;-143.84;73.21;45125.22;5130437;27;20430;-72
2022/12/17 16:29:47;;;;;;;12.17;9.60;;;;;;;-143.84;73.23;45161.41;5131769;27;20842;-70
2022/12/17 16:32:15;;;;;;;18.03;8.67;;;;;;;-143.84;73.23;45140.47;5132217;27;20530;-72
2022/12/17 16:34:42;;;;;;;12.57;8.60;;;;;;;-143.84;73.14;45136.66;5131303;27;20435;-71
2022/12/17 16:37:11;;;;;;;10.37;8.40;;;;;;;-143.84;72.96;45121.44;5132137;27;20441;-71
2022/12/17 16:39:38;;;;;;;11.07;8.80;;;;;;;-143.84;73.09;45130.94;5132084;27;20509;-71
2022/12/17 16:42:06;;;;;;;9.17;7.80;;;;;;;-143.84;73.39;45148.09;5131731;27;20437;-71
2022/12/17 16:44:33;;;;;;;15.03;8.30;;;;;;;-143.84;73.62;45134.75;5131660;27;20434;-71
2022/12/17 16:47:00;;;;;;;9.40;7.83;;;;;;;-143.84;73.35;45136.66;5131492;27;20455;-73
2022/12/17 16:49:28;;;;;;;12.00;8.50;;;;;;;-143.84;73.57;45134.75;5131493;27;20853;-73
2022/12/17 16:51:56;;;;;;;12.00;9.17;;;;;;;-143.84;73.50;45138.56;5131903;27;20493;-74
2022/12/17 16:54:27;;;;;;;12.90;8.90;;;;;;;-143.84;73.16;45132.84;5131658;27;21305;-72
2022/12/17 16:56:55;;;;;;;7.80;7.07;;;;;;;-143.84;72.47;45125.22;5131298;27;20449;-72
2022/12/17 16:59:22;;;;;;;8.47;7.53;;;;;;;-143.84;72.79;45134.75;5132008;27;20516;-71
2022/12/17 17:01:51;;;;;;;10.60;6.77;;;;;;;-143.84;71.45;45144.28;5131496;27;20442;-72
2022/12/17 17:04:20;;;;;;;6.27;5.70;;;;;;;-143.84;70.23;45186.16;5131788;27;20798;-71
2022/12/17 17:06:49;;;;;;;10.40;5.67;;;;;;;-143.84;69.17;45136.66;5130062;27;20475;-71
2022/12/17 17:09:16;;;;;;;5.30;4.90;;;;;;;-143.84;67.92;45159.50;5129957;27;20947;-71
2022/12/17 17:11:45;;;;;;;8.20;5.07;;;;;;;-143.84;66.88;45201.41;5130367;27;20604;-71
2022/12/17 17:14:12;;;;;;;8.10;4.37;;;;;;;-143.84;65.38;45172.84;5131438;27;20939;-71
2022/12/17 17:16:40;;;;;;;7.50;4.10;;;;;;;-143.84;64.69;45153.81;5129921;27;20457;-71
2022/12/17 17:19:07;;;;;;;6.93;5.07;;;;;;;-143.84;63.91;45153.81;5130772;27;20454;-71
2022/12/17 17:21:37;;;;;;;10.97;4.23;;;;;;;-143.84;63.48;45148.09;5132726;27;20457;-72
2022/12/17 17:24:08;;;;;;;7.53;3.80;;;;;;;-143.84;62.66;45140.47;5133826;27;20457;-72
2022/12/17 17:26:35;;;;;;;5.80;3.80;;;;;;;-143.84;62.35;45150.00;5133013;27;20526;-72
2022/12/17 17:29:05;;;;;;;3.50;3.30;;;;;;;-143.84;61.97;45148.09;5133379;27;20440;-71
2022/12/17 17:31:33;;;;;;;3.67;3.33;;;;;;;-143.84;61.78;45151.91;5132008;27;20469;-74
2022/12/17 17:34:00;;;;;;;6.57;3.33;;;;;;;-143.84;62.08;45157.59;5122106;27;20453;-71
2022/12/17 17:36:29;;;;;;;6.47;4.10;;;;;;;-143.84;62.38;45150.00;5112705;28;20446;-71
2022/12/17 17:39:00;;;;;;;3.60;3.27;;;;;;;-143.84;62.52;45155.69;5121281;27;20429;-72
2022/12/17 17:41:29;;;;;;;5.30;3.53;;;;;;;-143.84;62.32;45144.28;5132412;27;21011;-71
2022/12/17 17:43:57;;;;;;;9.47;4.07;;;;;;;-143.84;62.68;45157.59;5132898;27;20801;-72
2022/12/17 17:46:27;;;;;;;3.10;2.70;;;;;;;-143.84;62.75;45161.41;5131815;27;20450;-72
2022/12/17 17:48:56;;;;;;;2.57;2.40;;;;;;;-143.84;62.99;45148.09;5128640;27;20444;-69
2022/12/17 17:51:25;;;;;;;6.37;2.83;;;;;;;-143.84;63.06;45142.38;5129446;27;20473;-68
2022/12/17 17:53:53;;;;;;;3.30;3.00;;;;;;;-143.84;63.41;45151.91;5128989;27;20433;-73
2022/12/17 17:56:23;;;;;;;3.50;3.20;;;;;;;-143.84;63.28;45161.41;5128894;27;20437;-70
2022/12/17 17:58:52;;;;;;;6.77;3.60;;;;;;;-143.84;63.80;45151.91;5129541;27;20444;-70
2022/12/17 18:01:22;;;;;;;4.30;3.30;;;;;;;-143.84;64.25;45163.31;5130333;27;20453;-70
2022/12/17 18:03:51;;;;;;;5.40;3.63;;;;;;;-143.84;64.54;45169.03;5129691;27;20506;-69
2022/12/17 18:06:19;;;;;;;5.20;2.90;;;;;;;-143.84;64.68;45144.28;5129402;27;20512;-69
2022/12/17 18:08:46;;;;;;;2.57;2.40;;;;;;;-143.84;64.88;45140.47;5129004;27;20946;-69
2022/12/17 18:11:15;;;;;;;3.07;2.70;;;;;;;-143.84;65.26;45130.94;5129621;27;20474;-70
2022/12/17 18:13:55;;;;;;;2.67;2.47;;;;;;;-143.84;65.24;45151.91;5127666;27;20476;-70
2022/12/17 18:16:25;;;;;;;7.67;2.93;;;;;;;-143.84;65.39;45144.28;5128937;27;20446;-69
2022/12/17 18:18:56;;;;;;;5.00;2.87;;;;;;;-143.84;65.89;45170.94;5129691;27;20445;-69
2022/12/17 18:21:24;;;;;;;3.43;2.40;;;;;;;-143.84;66.09;45163.31;5122541;27;21008;-69
2022/12/17 18:23:55;;;;;;;6.37;3.13;;;;;;;-143.84;66.37;45174.75;5129823;27;20539;-69
2022/12/17 18:26:24;;;;;;;3.70;3.40;;;;;;;-143.84;66.54;45191.88;5110320;27;20795;-71
2022/12/17 18:28:52;;;;;;;5.40;3.27;;;;;;;-143.84;66.86;45150.00;5128962;27;20430;-69
2022/12/17 18:31:21;;;;;;;3.03;2.60;;;;;;;-143.84;67.21;45146.19;5129327;27;20490;-69
2022/12/17 18:33:50;;;;;;;4.10;3.23;;;;;;;-143.84;67.54;45159.50;5129388;27;20439;-70
2022/12/17 18:36:21;;;;;;;3.40;3.10;;;;;;;-143.84;68.01;45157.59;5130109;27;20452;-71
2022/12/17 18:38:48;;;;;;;5.03;3.00;;;;;;;-143.84;68.48;45138.56;5127322;27;20488;-70
2022/12/17 18:44:04;;;;;;;3.53;3.10;;;;;;;-143.84;68.69;45165.22;5129315;27;20549;-70
2022/12/17 18:46:32;;;;;;;4.87;2.80;;;;;;;-143.84;69.35;45174.75;5129267;27;20453;-69
2022/12/17 18:49:01;;;;;;;6.27;3.20;;;;;;;-143.84;69.83;45142.38;5129552;27;20452;-71
2022/12/17 18:51:30;;;;;;;5.80;3.10;;;;;;;-143.84;69.69;45157.59;5130100;27;20477;-71
2022/12/17 18:53:58;;;;;;;3.20;2.63;;;;;;;-143.84;69.78;45140.47;5129072;28;20439;-71
2022/12/17 18:56:26;;;;;;;4.67;3.20;;;;;;;-143.84;69.30;45155.69;5129869;28;20440;-70
2022/12/17 18:58:53;;;;;;;3.17;2.93;;;;;;;-143.84;68.95;45186.16;5129807;28;20439;-70
2022/12/17 19:01:23;;;;;;;5.33;2.60;;;;;;;-143.84;68.41;45155.69;5129612;28;20493;-70
2022/12/17 19:03:50;;;;;;;4.93;2.57;;;;;;;-143.84;67.54;45163.31;5129857;28;20835;-69
2022/12/17 19:06:19;;;;;;;10.10;3.20;;;;;;;-143.84;65.87;45155.69;5130248;28;20435;-69
2022/12/17 19:08:47;;;;;;;2.83;2.63;;;;;;;-143.84;65.66;45150.00;5129315;28;20433;-69
2022/12/17 19:11:16;;;;;;;6.77;2.97;;;;;;;-143.84;65.51;45174.75;5130415;28;20478;-69
2022/12/17 19:13:44;;;;;;;2.60;2.40;;;;;;;-143.84;64.79;45174.75;5129776;28;20561;-69
2022/12/17 19:16:13;;;;;;;2.90;2.60;;;;;;;-143.84;64.65;45188.06;5130057;28;21328;-69
2022/12/17 19:18:40;;;;;;;4.60;2.67;;;;;;;-143.84;64.28;45165.22;5129617;28;20432;-69
2022/12/17 19:21:09;;;;;;;2.40;2.30;;;;;;;-143.84;63.98;45140.47;5129457;28;20444;-69
2022/12/17 19:23:36;;;;;;;2.43;2.13;;;;;;;-143.84;63.45;45170.94;5129230;28;20902;-69
2022/12/17 19:26:10;;;;;;;2.37;2.20;;;;;;;-143.84;63.37;45172.84;5129549;28;20441;-69
2022/12/17 19:28:39;;;;;;;2.23;1.90;;;;;;;-143.84;63.70;45174.75;5128041;28;21010;-69
2022/12/17 19:31:06;;;;;;;2.77;2.57;;;;;;;-143.84;64.07;45163.31;5128645;28;20522;-69
2022/12/17 19:33:33;;;;;;;5.33;3.57;;;;;;;-143.84;64.08;45140.47;5128218;27;20949;-69
2022/12/17 19:36:02;;;;;;;4.03;3.20;;;;;;;-143.84;63.71;45150.00;5128267;28;20445;-69
2022/12/17 19:38:29;;;;;;;2.10;2.00;;;;;;;-143.84;63.93;45155.69;5128760;28;20800;-69
2022/12/17 19:40:56;;;;;;;9.30;3.37;;;;;;;-143.84;64.99;45146.19;5131015;27;20433;-69
2022/12/17 19:43:25;;;;;;;2.53;2.33;;;;;;;-143.84;64.88;45180.47;5129786;27;20444;-69
2022/12/17 19:45:52;;;;;;;7.30;4.03;;;;;;;-143.84;65.81;45167.13;5132830;27;20944;-69
2022/12/17 19:48:19;;;;;;;2.03;1.93;;;;;;;-143.84;66.16;45155.69;5132133;27;20867;-69
2022/12/17 19:50:55;;;;;;;2.60;2.30;;;;;;;-143.84;66.18;45172.84;5132635;27;20832;-70
2022/12/17 19:53:25;;;;;;;2.57;2.37;;;;;;;-143.84;66.69;45157.59;5129765;27;20429;-71
2022/12/17 19:55:53;;;;;;;2.47;2.30;;;;;;;-143.84;66.69;45159.50;5131472;27;20464;-68
2022/12/17 19:58:21;;;;;;;3.30;2.23;;;;;;;-143.84;66.72;45159.50;5131946;27;20438;-71
2022/12/17 20:00:50;;;;;;;3.00;2.40;;;;;;;-143.84;66.13;45170.94;5132810;27;20428;-71
2022/12/17 20:03:17;;;;;;;2.37;2.17;;;;;;;-143.84;66.47;45142.38;5130201;27;20442;-71
2022/12/17 20:05:44;;;;;;;2.70;2.10;;;;;;;-143.84;66.36;45150.00;5124710;27;20450;-72
2022/12/17 20:08:12;;;;;;;2.63;2.23;;;;;;;-143.84;66.22;45151.91;5129766;27;20526;-72
2022/12/17 20:10:39;;;;;;;2.30;2.20;;;;;;;-143.84;66.27;45169.03;5132996;27;20495;-69
2022/12/17 20:13:06;;;;;;;2.57;2.17;;;;;;;-143.84;65.86;45184.25;5131866;27;20823;-70
2022/12/17 20:15:34;;;;;;;3.20;2.53;;;;;;;-143.84;66.20;45155.69;5132472;27;20438;-69
2022/12/17 20:18:02;;;;;;;2.80;2.60;;;;;;;-143.84;66.81;45144.28;5132406;27;20427;-70
2022/12/17 20:20:29;;;;;;;2.60;2.40;;;;;;;-143.84;66.92;45151.91;5132462;27;20443;-69
2022/12/17 20:22:56;;;;;;;2.57;2.33;;;;;;;-143.84;67.03;45180.47;5131417;27;20499;-69
2022/12/17 20:25:23;;;;;;;2.27;1.83;;;;;;;-143.84;67.47;45169.03;5111765;28;20493;-69
2022/12/17 20:27:50;;;;;;;6.30;2.40;;;;;;;-143.84;67.36;45159.50;5128599;27;20486;-69
2022/12/17 20:30:18;;;;;;;2.17;1.97;;;;;;;-143.84;67.54;45172.84;5130707;27;20487;-69
2022/12/17 20:32:45;;;;;;;2.80;2.53;;;;;;;-143.84;67.11;45176.66;5131228;27;20471;-69
2022/12/17 20:35:14;;;;;;;3.00;2.80;;;;;;;-143.84;67.86;45146.19;5127972;27;20504;-69
2022/12/17 20:37:41;;;;;;;3.87;2.83;;;;;;;-143.84;68.69;45161.41;5130293;27;20966;-70
2022/12/17 20:40:09;;;;;;;2.90;2.70;;;;;;;-143.84;69.12;45180.47;5131381;27;20435;-69
2022/12/17 20:42:36;;;;;;;6.70;3.40;;;;;;;-143.84;69.41;45165.22;5130314;27;20924;-69
2022/12/17 20:45:04;;;;;;;4.50;3.53;;;;;;;-143.84;69.41;45151.91;5130091;27;20958;-70
2022/12/17 20:47:31;;;;;;;3.60;3.30;;;;;;;-143.84;69.79;45155.69;5127365;27;20437;-69
2022/12/17 20:49:58;;;;;;;3.90;3.60;;;;;;;-143.84;69.74;45174.75;5128866;27;20438;-69
2022/12/17 20:52:27;;;;;;;5.10;3.33;;;;;;;-143.84;69.99;45130.94;5129667;27;20466;-70
2022/12/17 20:54:54;;;;;;;4.53;3.77;;;;;;;-143.84;70.83;45172.84;5129763;27;20525;-70
2022/12/17 20:57:21;;;;;;;3.43;3.13;;;;;;;-143.84;70.77;45161.41;5130221;27;20437;-70
2022/12/17 20:59:49;;;;;;;4.50;3.63;;;;;;;-143.84;71.51;45157.59;5131556;27;20465;-69
2022/12/17 21:02:16;;;;;;;6.80;3.33;;;;;;;-143.84;72.16;45176.66;5131180;27;20434;-69
2022/12/17 21:04:43;;;;;;;3.30;3.00;;;;;;;-143.84;72.39;45142.38;5131483;27;20454;-69
2022/12/17 21:07:10;;;;;;;3.07;2.87;;;;;;;-143.84;71.64;45161.41;5131348;27;20446;-69
2022/12/17 21:09:39;;;;;;;2.93;2.73;;;;;;;-143.84;70.82;45167.13;5124529;27;20472;-70
2022/12/17 21:12:08;;;;;;;4.63;2.90;;;;;;;-143.84;70.39;45134.75;5127925;27;20498;-70
2022/12/17 21:14:35;;;;;;;3.13;2.93;;;;;;;-143.84;70.06;45172.84;5130876;27;20464;-70
2022/12/17 21:17:02;;;;;;;6.13;2.80;;;;;;;-143.84;70.31;45163.31;5130777;27;20436;-69
2022/12/17 21:19:29;;;;;;;3.33;2.60;;;;;;;-143.84;70.83;45167.13;5130911;27;20437;-70
2022/12/17 21:21:57;;;;;;;4.10;3.67;;;;;;;-143.84;72.05;45178.56;5130801;27;20445;-70
2022/12/17 21:24:24;;;;;;;6.00;3.77;;;;;;;-143.84;73.28;45146.19;5130534;27;20495;-69
2022/12/17 21:26:52;;;;;;;4.07;3.77;;;;;;;-143.84;74.16;45180.47;5128824;27;20434;-69
2022/12/17 21:29:20;;;;;;;9.53;3.97;;;;;;;-143.84;74.44;45157.59;5131391;27;20446;-71
2022/12/17 21:31:49;;;;;;;3.90;3.60;;;;;;;-143.84;74.16;45148.09;5131035;27;20488;-70
2022/12/17 21:34:20;;;;;;;4.07;3.63;;;;;;;-143.84;74.19;45157.59;5130714;27;20437;-69
2022/12/17 21:36:47;;;;;;;3.77;3.43;;;;;;;-143.84;74.77;45172.84;5131317;27;20473;-69
2022/12/17 21:39:15;;;;;;;4.50;4.10;;;;;;;-143.84;75.25;45172.84;5130584;27;20811;-70
2022/12/17 21:43:00;;;;;;;3.90;3.63;;;;;;;-143.84;75.61;45148.09;5129994;27;20430;-70
2022/12/17 21:44:34;;;;;;;4.13;3.67;;;;;;;-143.84;76.72;45157.59;5129985;27;20422;-70
2022/12/17 21:47:02;;;;;;;6.93;3.60;;;;;;;-143.84;77.11;45146.19;5130793;27;20445;-70
2022/12/17 21:49:29;;;;;;;6.23;4.03;;;;;;;-143.84;77.39;45163.31;5130787;27;20439;-70
2022/12/17 21:51:58;;;;;;;5.23;4.30;;;;;;;-143.84;77.60;45123.34;5130854;27;20589;-70
2022/12/17 21:54:25;;;;;;;4.40;3.40;;;;;;;-143.84;76.76;45150.00;5130839;27;20438;-70
2022/12/17 21:56:52;;;;;;;8.10;3.00;;;;;;;-143.84;75.93;45163.31;5130187;27;20429;-70
2022/12/17 21:59:19;;;;;;;3.33;3.13;;;;;;;-143.84;75.18;45153.81;5129511;27;20437;-70
2022/12/17 22:01:47;;;;;;;2.73;2.57;;;;;;;-143.84;74.11;45189.97;5130043;27;20440;-70
2022/12/17 22:04:15;;;;;;;2.50;2.30;;;;;;;-143.84;73.91;45150.00;5129237;27;21073;-70
2022/12/17 22:06:42;;;;;;;2.93;2.63;;;;;;;-143.84;73.99;45146.19;5129568;27;20494;-70
2022/12/17 22:09:10;;;;;;;3.53;3.23;;;;;;;-143.84;74.39;45150.00;5129788;27;20434;-69
2022/12/17 22:11:38;;;;;;;3.30;3.10;;;;;;;-143.84;74.36;45155.69;5129394;27;20908;-69
2022/12/17 22:14:10;;;;;;;3.17;2.90;;;;;;;-143.84;75.28;45165.22;5130008;27;20940;-69
2022/12/17 22:16:40;;;;;;;5.50;3.60;;;;;;;-143.84;75.44;45159.50;5129352;27;20523;-70
2022/12/17 22:19:10;;;;;;;4.27;3.87;;;;;;;-143.84;76.18;45157.59;5127228;27;20535;-70
2022/12/17 22:21:39;;;;;;;3.90;3.60;;;;;;;-143.84;75.95;45146.19;5129135;27;20867;-69
2022/12/17 22:24:08;;;;;;;3.37;3.07;;;;;;;-143.84;75.58;45138.56;5129329;27;20430;-69
2022/12/17 22:26:35;;;;;;;3.47;3.17;;;;;;;-143.84;75.67;45161.41;5129700;27;20434;-70
2022/12/17 22:29:03;;;;;;;5.17;3.40;;;;;;;-143.84;75.30;45148.09;5130161;27;20442;-70
2022/12/17 22:34:16;;;;;;;2.97;2.77;;;;;;;-143.84;74.93;45163.31;5109516;28;20437;-70
2022/12/17 22:36:43;;;;;;;4.27;3.97;;;;;;;-143.84;75.24;45176.66;5109141;28;20449;-70
2022/12/17 22:39:12;;;;;;;4.57;4.17;;;;;;;-143.84;75.50;45142.38;5108958;28;20874;-70
2022/12/17 22:44:25;;;;;;;5.57;3.77;;;;;;;-143.84;76.07;45169.03;5109465;28;20426;-70
2022/12/17 22:46:53;;;;;;;4.20;3.80;;;;;;;-143.84;75.94;45193.78;5109455;28;20450;-70
2022/12/17 22:49:22;;;;;;;2.93;2.73;;;;;;;-143.84;75.29;45186.16;5109516;28;20500;-70
2022/12/17 22:51:49;;;;;;;4.27;2.67;;;;;;;-143.84;74.90;45195.69;5109262;28;20572;-70
2022/12/17 22:54:16;;;;;;;2.37;2.27;;;;;;;-143.84;73.41;45165.22;5109562;28;20803;-70
2022/12/17 22:56:43;;;;;;;3.07;2.30;;;;;;;-143.84;72.92;45174.75;5109058;28;20444;-70
2022/12/17 22:59:16;;;;;;;2.77;2.57;;;;;;;-143.84;73.02;45180.47;5109251;28;20499;-70
2022/12/17 23:01:43;;;;;;;4.17;2.00;;;;;;;-143.84;72.33;45163.31;5109239;28;20435;-70
2022/12/17 23:04:13;;;;;;;1.90;1.80;;;;;;;-143.84;71.88;45184.25;5109258;28;20495;-70
2022/12/17 23:06:43;;;;;;;2.20;2.00;;;;;;;-143.84;71.84;45180.47;5109095;28;20445;-70
2022/12/17 23:09:11;;;;;;;3.40;2.00;;;;;;;-143.84;72.09;45163.31;5109290;28;20474;-70
2022/12/17 23:11:38;;;;;;;2.37;2.20;;;;;;;-143.84;72.14;45188.06;5108771;28;20523;-70
2022/12/17 23:14:06;;;;;;;2.10;2.00;;;;;;;-143.84;71.81;45151.91;5109064;28;20470;-70
2022/12/17 23:16:34;;;;;;;3.00;2.70;;;;;;;-143.84;71.96;45184.25;5112286;28;20444;-70
2022/12/17 23:19:02;;;;;;;2.83;2.53;;;;;;;-143.84;72.48;45184.25;5113505;28;20523;-70
2022/12/17 23:21:29;;;;;;;11.20;4.13;;;;;;;-143.84;72.79;45191.88;5113178;28;20492;-70
2022/12/17 23:23:58;;;;;;;2.90;2.70;;;;;;;-143.84;72.52;45169.03;5113108;28;20523;-70
2022/12/17 23:26:27;;;;;;;3.63;3.17;;;;;;;-143.84;72.17;45189.97;5113109;28;20439;-70
2022/12/17 23:28:57;;;;;;;6.33;2.80;;;;;;;-143.84;72.45;45197.59;5113086;28;20446;-71
2022/12/17 23:31:26;;;;;;;8.13;2.73;;;;;;;-143.84;72.41;45138.56;5112987;28;20446;-71
2022/12/17 23:33:53;;;;;;;2.90;2.70;;;;;;;-143.84;72.33;45150.00;5113025;28;20527;-71
2022/12/17 23:36:21;;;;;;;4.13;2.90;;;;;;;-143.84;72.13;45165.22;5112847;28;20960;-70
2022/12/17 23:38:50;;;;;;;2.30;2.20;;;;;;;-143.84;71.99;45180.47;5112701;28;20862;-70
2022/12/17 23:41:21;;;;;;;4.13;3.10;;;;;;;-143.84;71.54;45165.22;5112631;28;20501;-70
2022/12/17 23:43:49;;;;;;;3.17;2.90;;;;;;;-143.84;71.19;45189.97;5112732;28;20512;-70
2022/12/17 23:46:17;;;;;;;3.40;2.70;;;;;;;-143.84;71.05;45153.81;5132700;27;20446;-70
2022/12/17 23:48:45;;;;;;;3.43;2.87;;;;;;;-143.84;71.00;45155.69;5132687;27;21026;-70
2022/12/17 23:51:14;;;;;;;3.07;2.63;;;;;;;-143.84;71.17;45146.19;5133206;27;20483;-70
2022/12/17 23:53:42;;;;;;;2.97;2.77;;;;;;;-143.84;71.36;45161.41;5133025;27;20493;-70
2022/12/17 23:56:12;;;;;;;3.20;2.80;;;;;;;-143.84;71.58;45167.13;5133034;27;20434;-71
2022/12/17 23:58:42;;;;;;;2.70;2.60;;;;;;;-143.84;71.25;45176.66;5133499;27;20445;-70
